sensor_id;sensor_type;location;lat;lon;timestamp;P1;durP1;ratioP1;P2;durP2;ratioP2
76023;SDS011;64719;52.124;6.226;2023-01-30T00:00:48;42.20;;;18.77;;
76023;SDS011;64719;52.124;6.226;2023-01-30T00:05:43;44.28;;;18.75;;
76023;SDS011;64719;52.124;6.226;2023-01-30T00:08:11;50.42;;;21.63;;
76023;SDS011;64719;52.124;6.226;2023-01-30T00:10:38;39.63;;;20.38;;
76023;SDS011;64719;52.124;6.226;2023-01-30T00:13:05;50.53;;;20.60;;
76023;SDS011;64719;52.124;6.226;2023-01-30T00:15:31;49.15;;;21.15;;
76023;SDS011;64719;52.124;6.226;2023-01-30T00:17:58;44.92;;;20.73;;
76023;SDS011;64719;52.124;6.226;2023-01-30T00:20:26;43.95;;;20.65;;
76023;SDS011;64719;52.124;6.226;2023-01-30T00:22:52;47.78;;;21.40;;
76023;SDS011;64719;52.124;6.226;2023-01-30T00:25:19;49.28;;;22.33;;
76023;SDS011;64719;52.124;6.226;2023-01-30T00:27:45;52.83;;;22.02;;
76023;SDS011;64719;52.124;6.226;2023-01-30T00:30:12;49.80;;;22.33;;
76023;SDS011;64719;52.124;6.226;2023-01-30T00:32:39;51.35;;;21.15;;
76023;SDS011;64719;52.124;6.226;2023-01-30T00:35:05;50.45;;;22.35;;
76023;SDS011;64719;52.124;6.226;2023-01-30T00:37:34;50.50;;;21.73;;
76023;SDS011;64719;52.124;6.226;2023-01-30T00:40:01;46.13;;;21.42;;
76023;SDS011;64719;52.124;6.226;2023-01-30T00:42:27;50.60;;;22.25;;
76023;SDS011;64719;52.124;6.226;2023-01-30T00:45:23;50.05;;;22.58;;
76023;SDS011;64719;52.124;6.226;2023-01-30T00:48:07;49.30;;;22.40;;
76023;SDS011;64719;52.124;6.226;2023-01-30T00:50:34;51.05;;;22.95;;
76023;SDS011;64719;52.124;6.226;2023-01-30T00:53:09;54.42;;;22.52;;
76023;SDS011;64719;52.124;6.226;2023-01-30T00:55:36;53.20;;;22.52;;
76023;SDS011;64719;52.124;6.226;2023-01-30T00:58:02;46.60;;;21.40;;
76023;SDS011;64719;52.124;6.226;2023-01-30T01:00:29;52.30;;;23.48;;
76023;SDS011;64719;52.124;6.226;2023-01-30T01:02:55;52.65;;;22.35;;
76023;SDS011;64719;52.124;6.226;2023-01-30T01:05:22;55.22;;;24.05;;
76023;SDS011;64719;52.124;6.226;2023-01-30T01:07:48;54.70;;;23.98;;
76023;SDS011;64719;52.124;6.226;2023-01-30T01:10:17;55.00;;;22.27;;
76023;SDS011;64719;52.124;6.226;2023-01-30T01:12:43;60.13;;;23.75;;
76023;SDS011;64719;52.124;6.226;2023-01-30T01:15:10;53.55;;;25.13;;
76023;SDS011;64719;52.124;6.226;2023-01-30T01:17:38;62.17;;;24.17;;
76023;SDS011;64719;52.124;6.226;2023-01-30T01:20:06;55.67;;;25.33;;
76023;SDS011;64719;52.124;6.226;2023-01-30T01:22:34;52.53;;;24.33;;
76023;SDS011;64719;52.124;6.226;2023-01-30T01:25:00;51.72;;;23.60;;
76023;SDS011;64719;52.124;6.226;2023-01-30T01:27:28;58.38;;;23.98;;
76023;SDS011;64719;52.124;6.226;2023-01-30T01:29:55;54.55;;;23.98;;
76023;SDS011;64719;52.124;6.226;2023-01-30T01:32:21;56.90;;;26.02;;
76023;SDS011;64719;52.124;6.226;2023-01-30T01:34:48;55.88;;;25.08;;
76023;SDS011;64719;52.124;6.226;2023-01-30T01:37:15;57.35;;;24.08;;
76023;SDS011;64719;52.124;6.226;2023-01-30T01:39:41;52.28;;;23.20;;
76023;SDS011;64719;52.124;6.226;2023-01-30T01:42:25;56.72;;;25.25;;
76023;SDS011;64719;52.124;6.226;2023-01-30T01:45:03;51.20;;;22.83;;
76023;SDS011;64719;52.124;6.226;2023-01-30T01:47:41;57.72;;;23.45;;
76023;SDS011;64719;52.124;6.226;2023-01-30T01:50:12;52.85;;;25.08;;
76023;SDS011;64719;52.124;6.226;2023-01-30T01:52:42;60.40;;;22.88;;
76023;SDS011;64719;52.124;6.226;2023-01-30T01:55:10;50.08;;;23.08;;
76023;SDS011;64719;52.124;6.226;2023-01-30T01:57:38;56.13;;;22.40;;
76023;SDS011;64719;52.124;6.226;2023-01-30T02:00:10;53.47;;;25.75;;
76023;SDS011;64719;52.124;6.226;2023-01-30T02:02:40;52.75;;;23.63;;
76023;SDS011;64719;52.124;6.226;2023-01-30T02:05:08;52.03;;;22.90;;
76023;SDS011;64719;52.124;6.226;2023-01-30T02:07:37;48.45;;;23.50;;
76023;SDS011;64719;52.124;6.226;2023-01-30T02:10:09;53.90;;;23.90;;
76023;SDS011;64719;52.124;6.226;2023-01-30T02:12:40;53.50;;;23.48;;
76023;SDS011;64719;52.124;6.226;2023-01-30T02:15:09;51.28;;;22.77;;
76023;SDS011;64719;52.124;6.226;2023-01-30T02:17:36;51.80;;;23.73;;
76023;SDS011;64719;52.124;6.226;2023-01-30T02:20:04;56.97;;;24.52;;
76023;SDS011;64719;52.124;6.226;2023-01-30T02:22:53;63.28;;;26.17;;
76023;SDS011;64719;52.124;6.226;2023-01-30T02:26:02;58.83;;;22.77;;
76023;SDS011;64719;52.124;6.226;2023-01-30T02:31:55;59.55;;;24.55;;
76023;SDS011;64719;52.124;6.226;2023-01-30T02:34:31;63.03;;;24.88;;
76023;SDS011;64719;52.124;6.226;2023-01-30T02:37:09;57.70;;;24.85;;
76023;SDS011;64719;52.124;6.226;2023-01-30T02:39:49;52.47;;;23.13;;
76023;SDS011;64719;52.124;6.226;2023-01-30T02:42:28;60.80;;;25.50;;
76023;SDS011;64719;52.124;6.226;2023-01-30T02:45:01;53.45;;;23.98;;
76023;SDS011;64719;52.124;6.226;2023-01-30T02:47:37;57.97;;;24.83;;
76023;SDS011;64719;52.124;6.226;2023-01-30T02:50:09;59.30;;;25.42;;
76023;SDS011;64719;52.124;6.226;2023-01-30T02:52:41;57.40;;;23.83;;
76023;SDS011;64719;52.124;6.226;2023-01-30T02:55:09;50.95;;;22.77;;
76023;SDS011;64719;52.124;6.226;2023-01-30T02:57:45;53.00;;;22.25;;
76023;SDS011;64719;52.124;6.226;2023-01-30T03:00:12;51.53;;;21.98;;
76023;SDS011;64719;52.124;6.226;2023-01-30T03:05:51;44.35;;;18.00;;
76023;SDS011;64719;52.124;6.226;2023-01-30T03:08:31;44.08;;;19.35;;
76023;SDS011;64719;52.124;6.226;2023-01-30T03:11:05;41.00;;;18.75;;
76023;SDS011;64719;52.124;6.226;2023-01-30T03:13:36;36.15;;;16.50;;
76023;SDS011;64719;52.124;6.226;2023-01-30T03:16:11;38.83;;;16.00;;
76023;SDS011;64719;52.124;6.226;2023-01-30T03:21:14;33.63;;;14.70;;
76023;SDS011;64719;52.124;6.226;2023-01-30T03:23:42;28.00;;;13.65;;
76023;SDS011;64719;52.124;6.226;2023-01-30T03:26:10;25.90;;;13.23;;
76023;SDS011;64719;52.124;6.226;2023-01-30T03:28:42;25.77;;;11.98;;
76023;SDS011;64719;52.124;6.226;2023-01-30T03:31:10;25.85;;;11.75;;
76023;SDS011;64719;52.124;6.226;2023-01-30T03:33:36;30.42;;;12.02;;
76023;SDS011;64719;52.124;6.226;2023-01-30T03:36:04;24.98;;;11.52;;
76023;SDS011;64719;52.124;6.226;2023-01-30T03:38:32;21.80;;;10.55;;
76023;SDS011;64719;52.124;6.226;2023-01-30T03:40:59;24.75;;;10.73;;
76023;SDS011;64719;52.124;6.226;2023-01-30T03:43:26;19.15;;;10.68;;
76023;SDS011;64719;52.124;6.226;2023-01-30T03:45:52;21.48;;;10.27;;
76023;SDS011;64719;52.124;6.226;2023-01-30T03:48:19;22.92;;;10.70;;
76023;SDS011;64719;52.124;6.226;2023-01-30T03:50:46;23.52;;;10.18;;
76023;SDS011;64719;52.124;6.226;2023-01-30T03:53:14;19.70;;;10.23;;
76023;SDS011;64719;52.124;6.226;2023-01-30T03:55:40;22.60;;;10.68;;
76023;SDS011;64719;52.124;6.226;2023-01-30T03:58:08;18.17;;;9.60;;
76023;SDS011;64719;52.124;6.226;2023-01-30T04:00:35;21.92;;;9.38;;
76023;SDS011;64719;52.124;6.226;2023-01-30T04:03:01;21.63;;;9.80;;
76023;SDS011;64719;52.124;6.226;2023-01-30T04:05:28;21.92;;;9.82;;
76023;SDS011;64719;52.124;6.226;2023-01-30T04:07:55;22.83;;;9.55;;
76023;SDS011;64719;52.124;6.226;2023-01-30T04:10:23;19.08;;;9.05;;
76023;SDS011;64719;52.124;6.226;2023-01-30T04:12:50;23.42;;;10.13;;
76023;SDS011;64719;52.124;6.226;2023-01-30T04:15:17;18.58;;;9.68;;
76023;SDS011;64719;52.124;6.226;2023-01-30T04:17:43;21.45;;;9.75;;
76023;SDS011;64719;52.124;6.226;2023-01-30T04:20:11;20.55;;;9.52;;
76023;SDS011;64719;52.124;6.226;2023-01-30T04:22:38;22.25;;;9.55;;
76023;SDS011;64719;52.124;6.226;2023-01-30T04:25:05;20.45;;;9.93;;
76023;SDS011;64719;52.124;6.226;2023-01-30T04:27:33;27.17;;;11.02;;
76023;SDS011;64719;52.124;6.226;2023-01-30T04:29:59;20.98;;;9.50;;
76023;SDS011;64719;52.124;6.226;2023-01-30T04:32:26;22.13;;;9.73;;
76023;SDS011;64719;52.124;6.226;2023-01-30T04:34:52;23.95;;;10.18;;
76023;SDS011;64719;52.124;6.226;2023-01-30T04:37:19;27.75;;;11.02;;
76023;SDS011;64719;52.124;6.226;2023-01-30T04:39:45;25.20;;;9.63;;
76023;SDS011;64719;52.124;6.226;2023-01-30T04:42:12;22.35;;;10.00;;
76023;SDS011;64719;52.124;6.226;2023-01-30T04:44:40;23.67;;;9.63;;
76023;SDS011;64719;52.124;6.226;2023-01-30T04:47:06;24.60;;;9.02;;
76023;SDS011;64719;52.124;6.226;2023-01-30T04:49:33;22.65;;;10.02;;
76023;SDS011;64719;52.124;6.226;2023-01-30T04:51:59;23.48;;;8.82;;
76023;SDS011;64719;52.124;6.226;2023-01-30T04:54:26;18.00;;;9.32;;
76023;SDS011;64719;52.124;6.226;2023-01-30T04:56:52;20.60;;;8.27;;
76023;SDS011;64719;52.124;6.226;2023-01-30T04:59:19;20.23;;;7.93;;
76023;SDS011;64719;52.124;6.226;2023-01-30T05:01:46;22.98;;;8.45;;
76023;SDS011;64719;52.124;6.226;2023-01-30T05:04:13;20.23;;;8.50;;
76023;SDS011;64719;52.124;6.226;2023-01-30T05:06:40;20.83;;;7.38;;
76023;SDS011;64719;52.124;6.226;2023-01-30T05:09:06;21.25;;;7.18;;
76023;SDS011;64719;52.124;6.226;2023-01-30T05:11:33;17.60;;;6.63;;
76023;SDS011;64719;52.124;6.226;2023-01-30T05:13:59;22.08;;;6.53;;
76023;SDS011;64719;52.124;6.226;2023-01-30T05:16:26;14.68;;;6.05;;
76023;SDS011;64719;52.124;6.226;2023-01-30T05:18:54;15.70;;;5.70;;
76023;SDS011;64719;52.124;6.226;2023-01-30T05:21:22;19.17;;;5.03;;
76023;SDS011;64719;52.124;6.226;2023-01-30T05:23:51;14.93;;;5.78;;
76023;SDS011;64719;52.124;6.226;2023-01-30T05:26:18;12.85;;;5.28;;
76023;SDS011;64719;52.124;6.226;2023-01-30T05:28:49;15.63;;;5.05;;
76023;SDS011;64719;52.124;6.226;2023-01-30T05:31:16;17.27;;;5.32;;
76023;SDS011;64719;52.124;6.226;2023-01-30T05:33:44;9.73;;;4.53;;
76023;SDS011;64719;52.124;6.226;2023-01-30T05:36:14;15.75;;;5.15;;
76023;SDS011;64719;52.124;6.226;2023-01-30T05:38:42;9.85;;;3.92;;
76023;SDS011;64719;52.124;6.226;2023-01-30T05:41:09;18.23;;;5.03;;
76023;SDS011;64719;52.124;6.226;2023-01-30T05:43:37;15.23;;;5.57;;
76023;SDS011;64719;52.124;6.226;2023-01-30T05:46:04;12.75;;;4.10;;
76023;SDS011;64719;52.124;6.226;2023-01-30T05:48:31;9.88;;;4.15;;
76023;SDS011;64719;52.124;6.226;2023-01-30T05:50:58;16.88;;;4.78;;
76023;SDS011;64719;52.124;6.226;2023-01-30T05:53:27;13.25;;;4.10;;
76023;SDS011;64719;52.124;6.226;2023-01-30T05:55:56;12.35;;;4.00;;
76023;SDS011;64719;52.124;6.226;2023-01-30T05:58:24;8.50;;;3.10;;
76023;SDS011;64719;52.124;6.226;2023-01-30T06:00:51;12.93;;;3.20;;
76023;SDS011;64719;52.124;6.226;2023-01-30T06:03:17;10.73;;;3.33;;
76023;SDS011;64719;52.124;6.226;2023-01-30T06:05:45;8.30;;;2.95;;
76023;SDS011;64719;52.124;6.226;2023-01-30T06:08:11;11.30;;;3.42;;
76023;SDS011;64719;52.124;6.226;2023-01-30T06:10:39;6.18;;;2.63;;
76023;SDS011;64719;52.124;6.226;2023-01-30T06:13:06;11.40;;;3.03;;
76023;SDS011;64719;52.124;6.226;2023-01-30T06:15:34;5.68;;;2.35;;
76023;SDS011;64719;52.124;6.226;2023-01-30T06:18:01;7.40;;;2.42;;
76023;SDS011;64719;52.124;6.226;2023-01-30T06:20:28;11.80;;;2.70;;
76023;SDS011;64719;52.124;6.226;2023-01-30T06:22:54;9.40;;;2.35;;
76023;SDS011;64719;52.124;6.226;2023-01-30T06:25:21;13.30;;;2.72;;
76023;SDS011;64719;52.124;6.226;2023-01-30T06:27:48;9.52;;;2.30;;
76023;SDS011;64719;52.124;6.226;2023-01-30T06:30:15;12.80;;;2.40;;
76023;SDS011;64719;52.124;6.226;2023-01-30T06:32:42;12.05;;;2.10;;
76023;SDS011;64719;52.124;6.226;2023-01-30T06:35:08;10.68;;;2.40;;
76023;SDS011;64719;52.124;6.226;2023-01-30T06:37:35;6.95;;;2.58;;
76023;SDS011;64719;52.124;6.226;2023-01-30T06:40:01;11.30;;;2.60;;
76023;SDS011;64719;52.124;6.226;2023-01-30T06:42:28;12.32;;;2.72;;
76023;SDS011;64719;52.124;6.226;2023-01-30T06:44:56;8.93;;;2.28;;
76023;SDS011;64719;52.124;6.226;2023-01-30T06:47:22;15.02;;;3.47;;
76023;SDS011;64719;52.124;6.226;2023-01-30T06:49:49;12.80;;;2.47;;
76023;SDS011;64719;52.124;6.226;2023-01-30T06:52:15;12.63;;;2.20;;
76023;SDS011;64719;52.124;6.226;2023-01-30T06:54:42;14.45;;;2.60;;
76023;SDS011;64719;52.124;6.226;2023-01-30T06:57:08;7.82;;;2.10;;
76023;SDS011;64719;52.124;6.226;2023-01-30T06:59:36;9.50;;;1.90;;
76023;SDS011;64719;52.124;6.226;2023-01-30T07:02:04;7.75;;;1.90;;
76023;SDS011;64719;52.124;6.226;2023-01-30T07:04:30;11.15;;;1.98;;
76023;SDS011;64719;52.124;6.226;2023-01-30T07:06:57;8.73;;;2.15;;
76023;SDS011;64719;52.124;6.226;2023-01-30T07:09:24;9.18;;;2.17;;
76023;SDS011;64719;52.124;6.226;2023-01-30T07:11:50;15.40;;;2.65;;
76023;SDS011;64719;52.124;6.226;2023-01-30T07:14:17;13.13;;;2.50;;
76023;SDS011;64719;52.124;6.226;2023-01-30T07:16:43;9.57;;;1.85;;
76023;SDS011;64719;52.124;6.226;2023-01-30T07:19:11;12.60;;;2.28;;
76023;SDS011;64719;52.124;6.226;2023-01-30T07:21:38;10.10;;;2.25;;
76023;SDS011;64719;52.124;6.226;2023-01-30T07:24:04;14.35;;;2.15;;
76023;SDS011;64719;52.124;6.226;2023-01-30T07:26:31;9.77;;;2.70;;
76023;SDS011;64719;52.124;6.226;2023-01-30T07:28:59;9.05;;;2.08;;
76023;SDS011;64719;52.124;6.226;2023-01-30T07:31:25;10.00;;;1.92;;
76023;SDS011;64719;52.124;6.226;2023-01-30T07:33:52;13.57;;;2.08;;
76023;SDS011;64719;52.124;6.226;2023-01-30T07:36:19;11.25;;;2.55;;
76023;SDS011;64719;52.124;6.226;2023-01-30T07:38:46;10.40;;;2.42;;
76023;SDS011;64719;52.124;6.226;2023-01-30T07:41:13;12.75;;;2.50;;
76023;SDS011;64719;52.124;6.226;2023-01-30T07:43:40;15.00;;;3.28;;
76023;SDS011;64719;52.124;6.226;2023-01-30T07:46:06;17.10;;;2.55;;
76023;SDS011;64719;52.124;6.226;2023-01-30T07:48:33;19.67;;;2.83;;
76023;SDS011;64719;52.124;6.226;2023-01-30T07:51:00;13.23;;;2.60;;
76023;SDS011;64719;52.124;6.226;2023-01-30T07:53:28;14.30;;;2.65;;
76023;SDS011;64719;52.124;6.226;2023-01-30T07:55:54;9.32;;;2.00;;
76023;SDS011;64719;52.124;6.226;2023-01-30T07:58:21;15.32;;;2.08;;
76023;SDS011;64719;52.124;6.226;2023-01-30T08:00:48;14.82;;;2.00;;
76023;SDS011;64719;52.124;6.226;2023-01-30T08:03:15;21.38;;;3.20;;
76023;SDS011;64719;52.124;6.226;2023-01-30T08:05:42;20.08;;;2.72;;
76023;SDS011;64719;52.124;6.226;2023-01-30T08:10:38;15.73;;;2.47;;
76023;SDS011;64719;52.124;6.226;2023-01-30T08:13:05;11.80;;;2.35;;
76023;SDS011;64719;52.124;6.226;2023-01-30T08:15:31;12.32;;;2.78;;
76023;SDS011;64719;52.124;6.226;2023-01-30T08:17:58;17.92;;;2.70;;
76023;SDS011;64719;52.124;6.226;2023-01-30T08:20:25;10.00;;;2.08;;
76023;SDS011;64719;52.124;6.226;2023-01-30T08:22:52;17.30;;;2.85;;
76023;SDS011;64719;52.124;6.226;2023-01-30T08:25:19;12.05;;;2.53;;
76023;SDS011;64719;52.124;6.226;2023-01-30T08:27:47;17.90;;;2.40;;
76023;SDS011;64719;52.124;6.226;2023-01-30T08:30:14;14.30;;;3.00;;
76023;SDS011;64719;52.124;6.226;2023-01-30T08:32:40;14.98;;;2.65;;
76023;SDS011;64719;52.124;6.226;2023-01-30T08:35:07;12.73;;;2.17;;
76023;SDS011;64719;52.124;6.226;2023-01-30T08:37:35;11.55;;;3.03;;
76023;SDS011;64719;52.124;6.226;2023-01-30T08:40:02;21.45;;;3.22;;
76023;SDS011;64719;52.124;6.226;2023-01-30T08:42:28;14.30;;;2.72;;
76023;SDS011;64719;52.124;6.226;2023-01-30T08:44:56;17.27;;;2.90;;
76023;SDS011;64719;52.124;6.226;2023-01-30T08:47:23;14.07;;;2.75;;
76023;SDS011;64719;52.124;6.226;2023-01-30T08:49:49;13.30;;;2.33;;
76023;SDS011;64719;52.124;6.226;2023-01-30T08:52:16;14.63;;;2.50;;
76023;SDS011;64719;52.124;6.226;2023-01-30T08:54:43;10.27;;;1.92;;
76023;SDS011;64719;52.124;6.226;2023-01-30T08:57:10;13.05;;;2.22;;
76023;SDS011;64719;52.124;6.226;2023-01-30T08:59:36;10.55;;;2.40;;
76023;SDS011;64719;52.124;6.226;2023-01-30T09:02:04;12.30;;;2.10;;
76023;SDS011;64719;52.124;6.226;2023-01-30T09:04:31;16.45;;;3.10;;
76023;SDS011;64719;52.124;6.226;2023-01-30T09:06:58;16.60;;;3.03;;
76023;SDS011;64719;52.124;6.226;2023-01-30T09:09:24;18.10;;;2.45;;
76023;SDS011;64719;52.124;6.226;2023-01-30T09:11:51;10.95;;;2.83;;
76023;SDS011;64719;52.124;6.226;2023-01-30T09:14:17;20.20;;;3.40;;
76023;SDS011;64719;52.124;6.226;2023-01-30T09:16:44;15.90;;;2.83;;
76023;SDS011;64719;52.124;6.226;2023-01-30T09:19:12;18.35;;;3.53;;
76023;SDS011;64719;52.124;6.226;2023-01-30T09:21:38;11.20;;;2.85;;
76023;SDS011;64719;52.124;6.226;2023-01-30T09:24:05;14.73;;;2.60;;
76023;SDS011;64719;52.124;6.226;2023-01-30T09:26:32;15.30;;;4.75;;
76023;SDS011;64719;52.124;6.226;2023-01-30T09:28:58;12.63;;;3.13;;
76023;SDS011;64719;52.124;6.226;2023-01-30T09:31:25;14.82;;;3.22;;
76023;SDS011;64719;52.124;6.226;2023-01-30T09:33:51;14.45;;;2.63;;
76023;SDS011;64719;52.124;6.226;2023-01-30T09:36:19;19.48;;;3.88;;
76023;SDS011;64719;52.124;6.226;2023-01-30T09:38:46;9.40;;;2.00;;
76023;SDS011;64719;52.124;6.226;2023-01-30T09:41:19;13.80;;;2.30;;
76023;SDS011;64719;52.124;6.226;2023-01-30T09:44:09;11.98;;;2.92;;
76023;SDS011;64719;52.124;6.226;2023-01-30T09:46:46;14.70;;;1.92;;
76023;SDS011;64719;52.124;6.226;2023-01-30T09:49:18;12.63;;;2.50;;
76023;SDS011;64719;52.124;6.226;2023-01-30T09:51:57;10.20;;;2.20;;
76023;SDS011;64719;52.124;6.226;2023-01-30T09:54:33;11.95;;;2.30;;
76023;SDS011;64719;52.124;6.226;2023-01-30T09:57:10;12.43;;;2.65;;
76023;SDS011;64719;52.124;6.226;2023-01-30T09:59:46;15.43;;;2.35;;
76023;SDS011;64719;52.124;6.226;2023-01-30T10:02:23;13.73;;;2.92;;
76023;SDS011;64719;52.124;6.226;2023-01-30T10:04:58;13.80;;;2.50;;
76023;SDS011;64719;52.124;6.226;2023-01-30T10:10:01;13.63;;;2.55;;
76023;SDS011;64719;52.124;6.226;2023-01-30T10:12:38;12.85;;;2.75;;
76023;SDS011;64719;52.124;6.226;2023-01-30T10:15:20;16.45;;;2.78;;
76023;SDS011;64719;52.124;6.226;2023-01-30T10:18:01;18.17;;;3.08;;
76023;SDS011;64719;52.124;6.226;2023-01-30T10:20:49;10.85;;;2.42;;
76023;SDS011;64719;52.124;6.226;2023-01-30T10:23:24;15.68;;;3.00;;
76023;SDS011;64719;52.124;6.226;2023-01-30T10:26:09;12.43;;;2.65;;
76023;SDS011;64719;52.124;6.226;2023-01-30T10:28:39;13.98;;;2.40;;
76023;SDS011;64719;52.124;6.226;2023-01-30T10:31:09;10.88;;;2.17;;
76023;SDS011;64719;52.124;6.226;2023-01-30T10:33:40;16.77;;;3.97;;
76023;SDS011;64719;52.124;6.226;2023-01-30T10:36:10;15.77;;;2.63;;
76023;SDS011;64719;52.124;6.226;2023-01-30T10:38:42;13.90;;;2.17;;
76023;SDS011;64719;52.124;6.226;2023-01-30T10:41:12;14.45;;;2.63;;
76023;SDS011;64719;52.124;6.226;2023-01-30T10:43:44;14.90;;;2.78;;
76023;SDS011;64719;52.124;6.226;2023-01-30T10:46:36;11.00;;;2.28;;
76023;SDS011;64719;52.124;6.226;2023-01-30T10:49:17;13.05;;;2.42;;
76023;SDS011;64719;52.124;6.226;2023-01-30T10:51:51;14.15;;;3.50;;
76023;SDS011;64719;52.124;6.226;2023-01-30T10:54:24;14.68;;;3.65;;
76023;SDS011;64719;52.124;6.226;2023-01-30T10:56:59;15.07;;;3.25;;
76023;SDS011;64719;52.124;6.226;2023-01-30T10:59:39;12.40;;;2.25;;
76023;SDS011;64719;52.124;6.226;2023-01-30T11:02:21;11.30;;;2.35;;
76023;SDS011;64719;52.124;6.226;2023-01-30T11:04:51;14.18;;;2.78;;
76023;SDS011;64719;52.124;6.226;2023-01-30T11:07:23;10.07;;;2.40;;
76023;SDS011;64719;52.124;6.226;2023-01-30T11:09:51;11.30;;;2.20;;
76023;SDS011;64719;52.124;6.226;2023-01-30T11:12:17;13.10;;;2.28;;
76023;SDS011;64719;52.124;6.226;2023-01-30T11:14:54;12.73;;;2.47;;
76023;SDS011;64719;52.124;6.226;2023-01-30T11:17:27;13.52;;;2.45;;
76023;SDS011;64719;52.124;6.226;2023-01-30T11:20:00;13.18;;;1.85;;
76023;SDS011;64719;52.124;6.226;2023-01-30T11:22:30;10.52;;;2.75;;
76023;SDS011;64719;52.124;6.226;2023-01-30T11:25:01;19.38;;;2.55;;
76023;SDS011;64719;52.124;6.226;2023-01-30T11:27:30;12.15;;;2.28;;
76023;SDS011;64719;52.124;6.226;2023-01-30T11:30:02;12.63;;;2.55;;
76023;SDS011;64719;52.124;6.226;2023-01-30T11:32:36;15.90;;;2.33;;
76023;SDS011;64719;52.124;6.226;2023-01-30T11:35:10;12.85;;;2.78;;
76023;SDS011;64719;52.124;6.226;2023-01-30T11:37:47;15.00;;;2.30;;
76023;SDS011;64719;52.124;6.226;2023-01-30T11:40:21;10.45;;;2.45;;
76023;SDS011;64719;52.124;6.226;2023-01-30T11:42:51;13.63;;;2.22;;
76023;SDS011;64719;52.124;6.226;2023-01-30T11:45:23;10.88;;;2.00;;
76023;SDS011;64719;52.124;6.226;2023-01-30T11:47:51;16.40;;;2.83;;
76023;SDS011;64719;52.124;6.226;2023-01-30T11:50:20;11.27;;;2.45;;
76023;SDS011;64719;52.124;6.226;2023-01-30T11:52:51;10.27;;;2.20;;
76023;SDS011;64719;52.124;6.226;2023-01-30T11:55:20;19.17;;;2.55;;
76023;SDS011;64719;52.124;6.226;2023-01-30T11:57:47;9.40;;;2.13;;
76023;SDS011;64719;52.124;6.226;2023-01-30T12:00:18;12.65;;;2.55;;
76023;SDS011;64719;52.124;6.226;2023-01-30T12:02:48;11.57;;;2.53;;
76023;SDS011;64719;52.124;6.226;2023-01-30T12:05:17;12.05;;;2.08;;
76023;SDS011;64719;52.124;6.226;2023-01-30T12:07:49;13.15;;;2.10;;
76023;SDS011;64719;52.124;6.226;2023-01-30T12:10:24;17.17;;;2.72;;
76023;SDS011;64719;52.124;6.226;2023-01-30T12:12:54;10.85;;;2.08;;
76023;SDS011;64719;52.124;6.226;2023-01-30T12:15:24;13.45;;;2.22;;
76023;SDS011;64719;52.124;6.226;2023-01-30T12:17:55;16.20;;;2.85;;
76023;SDS011;64719;52.124;6.226;2023-01-30T12:20:30;13.77;;;2.97;;
76023;SDS011;64719;52.124;6.226;2023-01-30T12:23:10;13.80;;;2.30;;
76023;SDS011;64719;52.124;6.226;2023-01-30T12:25:42;13.95;;;2.40;;
76023;SDS011;64719;52.124;6.226;2023-01-30T12:28:19;15.57;;;2.70;;
76023;SDS011;64719;52.124;6.226;2023-01-30T12:30:52;15.95;;;3.13;;
76023;SDS011;64719;52.124;6.226;2023-01-30T12:33:21;10.57;;;2.28;;
76023;SDS011;64719;52.124;6.226;2023-01-30T12:35:55;12.02;;;2.50;;
76023;SDS011;64719;52.124;6.226;2023-01-30T12:38:44;11.65;;;2.38;;
76023;SDS011;64719;52.124;6.226;2023-01-30T12:44:17;11.50;;;2.55;;
76023;SDS011;64719;52.124;6.226;2023-01-30T12:46:58;15.18;;;3.47;;
76023;SDS011;64719;52.124;6.226;2023-01-30T12:49:44;17.38;;;3.55;;
76023;SDS011;64719;52.124;6.226;2023-01-30T12:52:38;14.65;;;2.70;;
76023;SDS011;64719;52.124;6.226;2023-01-30T12:55:17;14.30;;;2.30;;
76023;SDS011;64719;52.124;6.226;2023-01-30T12:57:58;11.07;;;2.60;;
76023;SDS011;64719;52.124;6.226;2023-01-30T13:00:32;18.33;;;2.53;;
76023;SDS011;64719;52.124;6.226;2023-01-30T13:03:15;8.90;;;2.67;;
76023;SDS011;64719;52.124;6.226;2023-01-30T13:05:50;16.67;;;2.67;;
76023;SDS011;64719;52.124;6.226;2023-01-30T13:08:41;17.38;;;2.30;;
76023;SDS011;64719;52.124;6.226;2023-01-30T13:11:22;13.18;;;3.13;;
76023;SDS011;64719;52.124;6.226;2023-01-30T13:14:05;16.92;;;2.50;;
76023;SDS011;64719;52.124;6.226;2023-01-30T13:16:46;17.27;;;3.28;;
76023;SDS011;64719;52.124;6.226;2023-01-30T13:19:20;12.88;;;3.05;;
76023;SDS011;64719;52.124;6.226;2023-01-30T13:21:51;13.63;;;2.50;;
76023;SDS011;64719;52.124;6.226;2023-01-30T13:24:28;19.80;;;2.70;;
76023;SDS011;64719;52.124;6.226;2023-01-30T13:27:04;10.52;;;2.20;;
76023;SDS011;64719;52.124;6.226;2023-01-30T13:29:41;17.55;;;2.80;;
76023;SDS011;64719;52.124;6.226;2023-01-30T13:32:10;15.55;;;2.88;;
76023;SDS011;64719;52.124;6.226;2023-01-30T13:34:43;14.63;;;3.28;;
76023;SDS011;64719;52.124;6.226;2023-01-30T13:37:14;10.65;;;2.30;;
76023;SDS011;64719;52.124;6.226;2023-01-30T13:39:42;15.70;;;3.40;;
76023;SDS011;64719;52.124;6.226;2023-01-30T13:42:16;13.30;;;2.78;;
76023;SDS011;64719;52.124;6.226;2023-01-30T13:44:52;17.35;;;2.67;;
76023;SDS011;64719;52.124;6.226;2023-01-30T13:47:23;15.77;;;2.30;;
76023;SDS011;64719;52.124;6.226;2023-01-30T13:50:02;12.57;;;2.15;;
76023;SDS011;64719;52.124;6.226;2023-01-30T13:52:58;13.30;;;2.25;;
76023;SDS011;64719;52.124;6.226;2023-01-30T13:55:32;13.95;;;2.83;;
76023;SDS011;64719;52.124;6.226;2023-01-30T13:58:04;14.68;;;2.80;;
76023;SDS011;64719;52.124;6.226;2023-01-30T14:00:39;15.68;;;2.92;;
76023;SDS011;64719;52.124;6.226;2023-01-30T14:03:27;14.80;;;3.13;;
76023;SDS011;64719;52.124;6.226;2023-01-30T14:09:19;15.77;;;3.42;;
76023;SDS011;64719;52.124;6.226;2023-01-30T14:11:55;13.63;;;2.65;;
76023;SDS011;64719;52.124;6.226;2023-01-30T14:14:27;12.57;;;2.47;;
76023;SDS011;64719;52.124;6.226;2023-01-30T14:17:06;15.55;;;3.10;;
76023;SDS011;64719;52.124;6.226;2023-01-30T14:19:36;18.20;;;3.70;;
76023;SDS011;64719;52.124;6.226;2023-01-30T14:22:18;13.75;;;2.78;;
76023;SDS011;64719;52.124;6.226;2023-01-30T14:27:53;12.93;;;2.75;;
76023;SDS011;64719;52.124;6.226;2023-01-30T14:30:45;13.32;;;2.58;;
76023;SDS011;64719;52.124;6.226;2023-01-30T14:33:33;14.68;;;3.08;;
76023;SDS011;64719;52.124;6.226;2023-01-30T14:42:10;9.65;;;2.10;;
76023;SDS011;64719;52.124;6.226;2023-01-30T14:44:56;13.27;;;2.70;;
76023;SDS011;64719;52.124;6.226;2023-01-30T14:47:24;13.88;;;2.70;;
76023;SDS011;64719;52.124;6.226;2023-01-30T14:49:53;12.27;;;2.47;;
76023;SDS011;64719;52.124;6.226;2023-01-30T14:52:32;21.02;;;4.93;;
76023;SDS011;64719;52.124;6.226;2023-01-30T14:55:03;10.52;;;1.58;;
76023;SDS011;64719;52.124;6.226;2023-01-30T14:57:31;14.57;;;2.83;;
76023;SDS011;64719;52.124;6.226;2023-01-30T14:59:59;16.88;;;3.13;;
76023;SDS011;64719;52.124;6.226;2023-01-30T15:02:31;13.27;;;2.20;;
76023;SDS011;64719;52.124;6.226;2023-01-30T15:05:05;11.20;;;2.50;;
76023;SDS011;64719;52.124;6.226;2023-01-30T15:07:36;14.05;;;2.47;;
76023;SDS011;64719;52.124;6.226;2023-01-30T15:10:10;16.08;;;3.38;;
76023;SDS011;64719;52.124;6.226;2023-01-30T15:15:49;11.27;;;2.05;;
76023;SDS011;64719;52.124;6.226;2023-01-30T15:18:28;18.92;;;2.50;;
76023;SDS011;64719;52.124;6.226;2023-01-30T15:21:13;13.15;;;3.53;;
76023;SDS011;64719;52.124;6.226;2023-01-30T15:24:07;14.50;;;2.50;;
76023;SDS011;64719;52.124;6.226;2023-01-30T15:26:51;8.18;;;2.22;;